Time;durP1;ratioP1;P1;durP2;ratioP2;P2;SDS_P1;SDS_P2;PMS_P1;PMS_P2;Temp;Humidity;BMP_temperature;BMP_pressure;BME280_temperature;BME280_humidity;BME280_pressure;Samples;Min_cycle;Max_cycle;Signal;HPM_P1;HPM_P2
2023/02/27 00:00:55;;;;;;;7.72;0.85;;;3.20;99.90;;;;;;4883510;29;20489;-82
2023/02/27 00:03:21;;;;;;;2.63;0.30;;;3.20;99.90;;;;;;4882443;29;20076;-80
2023/02/27 00:05:47;;;;;;;1.95;0.98;;;3.10;99.90;;;;;;4883406;29;20068;-81
2023/02/27 00:08:13;;;;;;;1.20;0.45;;;3.10;99.90;;;;;;4881670;29;20069;-80
2023/02/27 00:10:39;;;;;;;2.00;0.60;;;3.10;99.90;;;;;;4900007;29;20104;-81
2023/02/27 00:13:04;;;;;;;1.63;0.68;;;3.00;99.90;;;;;;4897139;29;20060;-80
2023/02/27 00:15:31;;;;;;;4.57;0.90;;;3.00;99.90;;;;;;4899959;29;20085;-81
2023/02/27 00:17:57;;;;;;;6.20;0.50;;;3.00;99.90;;;;;;4882012;29;20032;-81
2023/02/27 00:20:23;;;;;;;3.85;0.60;;;2.90;99.90;;;;;;4899979;29;20033;-81
2023/02/27 00:22:50;;;;;;;4.72;0.73;;;2.90;99.90;;;;;;4897409;29;20520;-81
2023/02/27 00:25:16;;;;;;;4.90;0.75;;;2.90;99.90;;;;;;4894699;29;20036;-80
2023/02/27 00:27:42;;;;;;;1.73;0.50;;;2.90;99.90;;;;;;4882081;29;20025;-80
2023/02/27 00:30:10;;;;;;;2.38;0.70;;;2.80;99.90;;;;;;4898795;29;20028;-81
2023/02/27 00:32:36;;;;;;;1.88;0.50;;;2.80;99.90;;;;;;4882281;29;20083;-82
2023/02/27 00:35:06;;;;;;;1.60;0.63;;;2.80;99.90;;;;;;4893509;29;20482;-82
2023/02/27 00:37:33;;;;;;;4.78;0.77;;;2.80;99.90;;;;;;4889412;29;20029;-80
2023/02/27 00:39:59;;;;;;;3.47;0.60;;;2.70;99.90;;;;;;4899511;29;20029;-81
2023/02/27 00:42:26;;;;;;;2.17;0.45;;;2.70;99.90;;;;;;4897704;29;20032;-81
2023/02/27 00:44:51;;;;;;;4.63;0.82;;;2.70;99.90;;;;;;4898990;29;20033;-82
2023/02/27 00:47:17;;;;;;;2.70;0.93;;;2.70;99.90;;;;;;4880194;29;20578;-80
2023/02/27 00:49:43;;;;;;;1.33;0.38;;;2.60;99.90;;;;;;4899805;29;20060;-81
2023/02/27 00:52:10;;;;;;;2.53;0.60;;;2.60;99.90;;;;;;4881736;29;20400;-81
2023/02/27 00:54:35;;;;;;;0.73;0.50;;;2.60;99.90;;;;;;4898957;29;20084;-82
2023/02/27 00:57:01;;;;;;;4.07;0.63;;;2.60;99.90;;;;;;4899019;29;20040;-81
2023/02/27 00:59:27;;;;;;;2.08;0.88;;;2.60;99.90;;;;;;4895330;29;20051;-81
2023/02/27 01:01:53;;;;;;;1.63;1.17;;;2.50;99.90;;;;;;4898579;29;20503;-81
2023/02/27 01:04:19;;;;;;;1.65;0.80;;;2.60;99.90;;;;;;4898930;29;20024;-81
2023/02/27 01:06:44;;;;;;;2.80;0.40;;;2.60;99.90;;;;;;4899318;29;20544;-81
2023/02/27 01:09:10;;;;;;;2.35;0.43;;;2.60;99.90;;;;;;4878517;29;20478;-82
2023/02/27 01:11:36;;;;;;;1.70;0.35;;;2.50;99.90;;;;;;4863904;29;20025;-82
2023/02/27 01:14:01;;;;;;;1.85;0.50;;;2.60;99.90;;;;;;4895192;29;20028;-82
2023/02/27 01:16:28;;;;;;;5.18;1.23;;;2.60;99.90;;;;;;4899204;29;20028;-81
2023/02/27 01:18:54;;;;;;;2.05;0.50;;;2.60;99.90;;;;;;4899191;29;20041;-82
2023/02/27 01:21:19;;;;;;;6.05;0.60;;;2.60;99.90;;;;;;4898506;29;20029;-80
2023/02/27 01:23:45;;;;;;;5.57;0.65;;;2.60;99.90;;;;;;4881281;29;20029;-80
2023/02/27 01:26:11;;;;;;;1.27;0.30;;;2.60;99.90;;;;;;4895964;29;20040;-81
2023/02/27 01:28:37;;;;;;;5.60;0.50;;;2.60;99.90;;;;;;4880683;29;20055;-80
2023/02/27 01:31:03;;;;;;;1.10;0.50;;;2.60;99.90;;;;;;4898743;29;20095;-80
2023/02/27 01:33:28;;;;;;;8.40;0.47;;;2.60;99.90;;;;;;4898833;29;20057;-81
2023/02/27 01:35:54;;;;;;;2.83;0.50;;;2.60;99.90;;;;;;4875669;29;20036;-80
2023/02/27 01:38:20;;;;;;;5.22;0.60;;;2.60;99.90;;;;;;4880454;29;20108;-81
2023/02/27 01:40:45;;;;;;;7.55;0.50;;;2.60;99.90;;;;;;4863697;29;20039;-82
2023/02/27 01:43:19;;;;;;;9.98;0.70;;;2.60;99.90;;;;;;4869677;29;20576;-82
2023/02/27 01:45:47;;;;;;;2.17;0.80;;;2.60;99.90;;;;;;4898022;29;20036;-81
2023/02/27 01:48:34;;;;;;;5.65;0.75;;;2.60;99.90;;;;;;4898788;29;20029;-82
2023/02/27 01:51:17;;;;;;;0.73;0.60;;;2.60;99.90;;;;;;4898936;29;20065;-82
2023/02/27 01:53:46;;;;;;;9.45;0.60;;;2.60;99.90;;;;;;4881475;29;20032;-81
2023/02/27 01:56:26;;;;;;;5.75;0.50;;;2.60;99.90;;;;;;4897437;29;20036;-82
2023/02/27 01:59:00;;;;;;;3.95;0.93;;;2.50;99.90;;;;;;4880832;29;20123;-81
2023/02/27 02:01:27;;;;;;;1.95;0.40;;;2.40;99.90;;;;;;4898231;29;20152;-80
2023/02/27 02:04:01;;;;;;;9.27;0.57;;;2.40;99.90;;;;;;4896982;29;20032;-80
2023/02/27 02:06:30;;;;;;;1.00;0.57;;;2.40;99.90;;;;;;4897882;29;20037;-81
2023/02/27 02:08:58;;;;;;;2.85;0.40;;;2.40;99.90;;;;;;4896733;29;20024;-80
2023/02/27 02:11:27;;;;;;;6.43;0.63;;;2.40;99.90;;;;;;4898360;29;20037;-80
2023/02/27 02:13:56;;;;;;;4.18;0.40;;;2.40;99.90;;;;;;4879847;29;20037;-80
2023/02/27 02:16:40;;;;;;;5.00;0.73;;;2.40;99.90;;;;;;4897796;29;20055;-79
2023/02/27 02:19:26;;;;;;;1.40;0.25;;;2.40;99.90;;;;;;4897402;29;20045;-80
2023/02/27 02:22:16;;;;;;;1.77;0.60;;;2.40;99.90;;;;;;4898289;29;20090;-80
2023/02/27 02:25:10;;;;;;;9.63;1.10;;;2.40;99.90;;;;;;4881681;29;20411;-80
2023/02/27 02:27:35;;;;;;;1.90;0.30;;;2.40;99.90;;;;;;4884699;29;20032;-80
2023/02/27 02:30:35;;;;;;;1.95;0.40;;;2.40;99.90;;;;;;4900906;29;20049;-79
2023/02/27 02:33:32;;;;;;;7.18;0.68;;;2.40;99.90;;;;;;4900959;29;20608;-79
2023/02/27 02:36:07;;;;;;;4.82;1.05;;;2.30;99.90;;;;;;4866462;29;20034;-80
2023/02/27 02:38:35;;;;;;;3.42;1.02;;;2.30;99.90;;;;;;4882048;29;20040;-80
2023/02/27 02:41:16;;;;;;;2.13;1.65;;;2.30;99.90;;;;;;4884926;29;20060;-79
2023/02/27 02:43:47;;;;;;;1.40;0.70;;;2.20;99.90;;;;;;4900532;29;20040;-80
2023/02/27 02:46:46;;;;;;;1.77;0.50;;;2.20;99.90;;;;;;4884207;29;20089;-80
2023/02/27 02:49:34;;;;;;;2.35;0.70;;;2.10;99.90;;;;;;4901707;29;20397;-80
2023/02/27 02:52:07;;;;;;;1.05;0.43;;;2.10;99.90;;;;;;4884590;29;20165;-81
2023/02/27 02:54:55;;;;;;;2.83;1.20;;;2.00;99.90;;;;;;4901190;29;20036;-80
2023/02/27 02:57:37;;;;;;;1.77;0.40;;;2.10;99.90;;;;;;4900786;29;20482;-80
2023/02/27 03:00:12;;;;;;;4.93;0.90;;;2.00;99.90;;;;;;4888170;29;20029;-80
2023/02/27 03:03:00;;;;;;;1.33;0.55;;;2.00;99.90;;;;;;4896128;29;20042;-79
2023/02/27 03:05:32;;;;;;;0.88;0.50;;;2.10;99.90;;;;;;4891135;29;20025;-80
2023/02/27 03:08:12;;;;;;;2.22;0.90;;;2.00;99.90;;;;;;4882563;29;20036;-78
2023/02/27 03:10:50;;;;;;;2.72;0.47;;;2.00;99.90;;;;;;4923076;29;20120;-80
2023/02/27 03:13:37;;;;;;;0.90;0.40;;;2.00;99.90;;;;;;4924490;29;20041;-80
2023/02/27 03:16:11;;;;;;;4.60;0.57;;;2.00;99.90;;;;;;4925825;29;20033;-80
2023/02/27 03:18:55;;;;;;;2.05;0.80;;;2.00;99.90;;;;;;4924766;29;20044;-79
2023/02/27 03:21:34;;;;;;;1.80;0.68;;;2.00;99.90;;;;;;4909515;29;20028;-80
2023/02/27 03:24:03;;;;;;;3.75;1.13;;;2.00;99.90;;;;;;4907033;29;20061;-79
2023/02/27 03:26:37;;;;;;;3.63;0.90;;;2.00;99.90;;;;;;4906345;29;20069;-81
2023/02/27 03:29:08;;;;;;;2.05;0.70;;;1.90;99.90;;;;;;4905803;29;20033;-80
2023/02/27 03:31:50;;;;;;;3.35;0.52;;;1.90;99.90;;;;;;4925638;29;20080;-79
2023/02/27 03:34:22;;;;;;;1.58;0.70;;;1.90;99.90;;;;;;4924214;29;20044;-78
2023/02/27 03:36:51;;;;;;;1.25;0.65;;;1.80;99.90;;;;;;4923895;29;20016;-80
2023/02/27 03:39:38;;;;;;;1.23;0.50;;;1.90;99.90;;;;;;4908637;29;20060;-79
2023/02/27 03:42:22;;;;;;;1.80;0.50;;;1.80;99.90;;;;;;4909114;29;20080;-79
2023/02/27 03:45:21;;;;;;;8.50;1.33;;;1.70;99.90;;;;;;4924642;29;20045;-78
2023/02/27 03:47:47;;;;;;;3.15;0.82;;;1.80;99.90;;;;;;4859597;29;20044;-78
2023/02/27 03:50:13;;;;;;;4.57;0.55;;;1.80;99.90;;;;;;4942554;29;20079;-78
2023/02/27 03:52:39;;;;;;;2.33;0.55;;;1.70;99.90;;;;;;4927642;29;20016;-80
2023/02/27 03:55:20;;;;;;;2.97;0.77;;;1.70;99.90;;;;;;4943313;29;20052;-79
2023/02/27 03:57:48;;;;;;;0.47;0.47;;;1.70;99.90;;;;;;4936968;29;20076;-78
2023/02/27 04:00:18;;;;;;;2.33;0.35;;;1.70;99.90;;;;;;4921583;29;20052;-79
2023/02/27 04:02:45;;;;;;;3.25;0.35;;;1.70;99.90;;;;;;4907632;29;20016;-77
2023/02/27 04:05:11;;;;;;;3.67;0.73;;;1.70;99.90;;;;;;4908145;29;20028;-79
2023/02/27 04:07:56;;;;;;;2.60;0.80;;;1.70;99.90;;;;;;4924371;29;20036;-78
2023/02/27 04:10:49;;;;;;;5.72;1.02;;;1.70;99.90;;;;;;4906400;29;20051;-79
2023/02/27 04:13:55;;;;;;;1.52;0.70;;;1.70;99.90;;;;;;4904909;29;20029;-80
2023/02/27 04:16:44;;;;;;;1.70;0.70;;;1.70;99.90;;;;;;4887053;29;20028;-80
2023/02/27 04:19:10;;;;;;;0.70;0.47;;;1.70;99.90;;;;;;4884314;29;20043;-81
2023/02/27 04:22:21;;;;;;;2.47;0.82;;;1.60;99.90;;;;;;4901254;29;20040;-80
2023/02/27 04:25:08;;;;;;;1.85;0.50;;;1.60;99.90;;;;;;4900263;29;20458;-80
2023/02/27 04:27:45;;;;;;;3.33;0.60;;;1.60;99.90;;;;;;4899985;29;20038;-79
2023/02/27 04:30:20;;;;;;;2.33;0.65;;;1.60;99.90;;;;;;4897241;29;20032;-80
2023/02/27 04:32:58;;;;;;;2.90;1.38;;;1.70;99.90;;;;;;4882805;29;20572;-80
2023/02/27 04:35:36;;;;;;;2.70;0.55;;;1.60;99.90;;;;;;4900006;29;20032;-80
2023/02/27 04:38:12;;;;;;;2.50;0.60;;;1.60;99.90;;;;;;4881540;29;20025;-81
2023/02/27 04:40:43;;;;;;;3.45;0.93;;;1.60;99.90;;;;;;4898177;29;20490;-80
2023/02/27 04:43:13;;;;;;;1.38;0.50;;;1.60;99.90;;;;;;4898006;29;20044;-80
2023/02/27 04:45:41;;;;;;;2.30;0.43;;;1.60;99.90;;;;;;4880994;29;20040;-80
2023/02/27 04:48:33;;;;;;;1.00;0.55;;;1.60;99.90;;;;;;4882960;29;20028;-81
2023/02/27 04:51:13;;;;;;;3.58;0.70;;;1.60;99.90;;;;;;4899698;29;20031;-79
2023/02/27 04:54:11;;;;;;;1.92;0.88;;;1.60;99.90;;;;;;4882690;29;20036;-80
2023/02/27 04:56:51;;;;;;;0.57;0.57;;;1.60;99.90;;;;;;4834211;29;20040;-80
2023/02/27 04:59:24;;;;;;;1.42;0.50;;;1.50;99.90;;;;;;4898619;29;20035;-80
2023/02/27 05:02:00;;;;;;;4.10;0.55;;;1.50;99.90;;;;;;4880993;29;20035;-81
2023/02/27 05:04:30;;;;;;;1.52;0.50;;;1.40;99.90;;;;;;4896635;29;20051;-81
2023/02/27 05:06:57;;;;;;;4.22;1.73;;;1.50;99.90;;;;;;4897349;29;20068;-80
2023/02/27 05:12:25;;;;;;;1.13;0.57;;;1.50;99.90;;;;;;4895963;29;20087;-81
2023/02/27 05:15:31;;;;;;;3.50;0.75;;;1.50;99.90;;;;;;4881018;29;20037;-80
2023/02/27 05:17:57;;;;;;;1.30;0.47;;;1.40;99.90;;;;;;4880363;29;20513;-80
2023/02/27 05:20:25;;;;;;;3.08;0.98;;;1.40;99.90;;;;;;4880434;29;20036;-80
2023/02/27 05:22:58;;;;;;;1.63;0.60;;;1.40;99.90;;;;;;4881080;29;20024;-80
2023/02/27 05:25:40;;;;;;;5.28;0.88;;;1.40;99.90;;;;;;4900269;29;20149;-80
2023/02/27 05:28:18;;;;;;;3.05;0.75;;;1.40;99.90;;;;;;4898547;29;20017;-80
2023/02/27 05:31:10;;;;;;;;;;;1.30;99.90;;;;;;4899360;29;20079;-80
2023/02/27 05:33:38;;;;;;;3.30;0.65;;;1.30;99.90;;;;;;4894253;29;20352;-81
2023/02/27 05:36:06;;;;;;;;;;;1.30;99.90;;;;;;4899169;29;20476;-79
2023/02/27 05:38:51;;;;;;;6.68;0.77;;;1.20;99.90;;;;;;4891653;29;19976;-80
2023/02/27 05:41:34;;;;;;;4.43;0.60;;;1.20;99.90;;;;;;4868070;29;20028;-77
2023/02/27 05:44:24;;;;;;;0.93;0.60;;;1.30;99.90;;;;;;4888908;29;20036;-78
2023/02/27 05:49:45;;;;;;;4.22;0.55;;;1.20;99.90;;;;;;5406353;23;20103;-81
2023/02/27 05:52:16;;;;;;;1.63;0.85;;;1.20;99.90;;;;;;4917195;29;20071;-76
2023/02/27 05:55:01;;;;;;;0.77;0.65;;;1.10;99.90;;;;;;4917527;29;20085;-77
2023/02/27 05:57:51;;;;;;;2.70;0.68;;;1.10;99.90;;;;;;4917210;29;20036;-79
2023/02/27 06:00:31;;;;;;;1.42;0.80;;;1.10;99.90;;;;;;4897102;29;20088;-76
2023/02/27 06:02:56;;;;;;;5.35;0.73;;;1.10;99.90;;;;;;4897598;29;20060;-76
2023/02/27 06:05:24;;;;;;;2.53;0.80;;;1.00;99.90;;;;;;4880155;29;20083;-82
2023/02/27 06:07:50;;;;;;;7.38;1.30;;;1.00;99.90;;;;;;4899220;29;20044;-82
2023/02/27 06:10:18;;;;;;;5.18;0.55;;;1.00;99.90;;;;;;4860042;29;20034;-82
2023/02/27 06:12:44;;;;;;;1.27;0.50;;;1.00;99.90;;;;;;4864842;29;20585;-82
2023/02/27 06:15:10;;;;;;;2.25;0.70;;;1.00;99.90;;;;;;4862641;29;20136;-81
2023/02/27 06:17:36;;;;;;;1.00;0.35;;;1.00;99.90;;;;;;4878967;29;20036;-82
2023/02/27 06:20:03;;;;;;;2.63;0.80;;;1.00;99.90;;;;;;4878323;29;20037;-81
2023/02/27 06:22:28;;;;;;;4.32;1.13;;;1.00;99.90;;;;;;4878266;29;20033;-81
2023/02/27 06:24:54;;;;;;;3.00;0.40;;;1.00;99.90;;;;;;4862735;29;20052;-81
2023/02/27 06:27:20;;;;;;;2.05;0.65;;;1.00;99.90;;;;;;4878317;29;20431;-81
2023/02/27 06:29:46;;;;;;;1.65;0.75;;;1.00;99.90;;;;;;4819622;29;20090;-81
2023/02/27 06:32:12;;;;;;;0.75;0.68;;;1.00;99.90;;;;;;4823164;29;20160;-81
2023/02/27 06:34:37;;;;;;;2.58;0.63;;;1.00;99.90;;;;;;4823367;29;20046;-80
2023/02/27 06:37:03;;;;;;;1.02;0.55;;;1.00;99.90;;;;;;4822776;29;20130;-80
2023/02/27 06:39:30;;;;;;;4.18;0.68;;;1.00;99.90;;;;;;4815624;29;20152;-82
2023/02/27 06:41:55;;;;;;;2.20;0.73;;;1.00;99.90;;;;;;4836560;29;20407;-82
2023/02/27 06:44:21;;;;;;;2.70;0.95;;;1.00;99.90;;;;;;4859609;29;20044;-82
2023/02/27 06:46:46;;;;;;;2.63;0.57;;;1.00;99.90;;;;;;4859636;29;20049;-81
2023/02/27 06:49:12;;;;;;;1.20;0.65;;;1.00;99.90;;;;;;4843806;29;20046;-80
2023/02/27 06:51:38;;;;;;;5.63;0.82;;;1.00;99.90;;;;;;4859303;29;20041;-81
2023/02/27 06:54:04;;;;;;;4.32;1.40;;;1.00;99.90;;;;;;4859290;29;20038;-81
2023/02/27 06:56:31;;;;;;;2.97;0.95;;;1.10;99.90;;;;;;4859665;29;20445;-81
2023/02/27 06:58:59;;;;;;;2.08;0.57;;;1.10;99.90;;;;;;4859921;29;20041;-81
2023/02/27 07:01:25;;;;;;;2.08;0.63;;;1.10;99.90;;;;;;4885388;29;20413;-82
2023/02/27 07:03:50;;;;;;;4.50;1.48;;;1.20;99.90;;;;;;4899967;29;20601;-82
2023/02/27 07:06:16;;;;;;;1.63;0.85;;;1.20;99.90;;;;;;4898643;29;20028;-81
2023/02/27 07:08:42;;;;;;;3.00;0.85;;;1.30;99.90;;;;;;4909630;29;20068;-81
2023/02/27 07:11:08;;;;;;;2.10;0.77;;;1.30;99.90;;;;;;4919620;29;20021;-80
2023/02/27 07:13:34;;;;;;;12.90;1.30;;;1.40;99.90;;;;;;4920970;29;20080;-82
2023/02/27 07:16:00;;;;;;;4.07;0.82;;;1.40;99.90;;;;;;4923700;29;20027;-80
2023/02/27 07:18:26;;;;;;;3.63;1.27;;;1.50;99.90;;;;;;4924542;29;20092;-81
2023/02/27 07:20:54;;;;;;;3.15;1.27;;;1.60;99.90;;;;;;4924684;29;20024;-80
2023/02/27 07:23:22;;;;;;;3.35;1.13;;;1.70;99.90;;;;;;4908474;29;20060;-81
2023/02/27 07:25:49;;;;;;;10.07;1.63;;;1.80;99.90;;;;;;4925148;29;20021;-81
2023/02/27 07:28:14;;;;;;;2.83;1.10;;;1.90;99.90;;;;;;4922019;29;20044;-80
2023/02/27 07:30:40;;;;;;;6.20;1.20;;;1.90;99.90;;;;;;4905829;29;20021;-80
2023/02/27 07:33:06;;;;;;;10.02;1.52;;;2.00;99.90;;;;;;4921442;29;20037;-80
2023/02/27 07:35:32;;;;;;;3.35;0.85;;;2.00;99.90;;;;;;4925423;29;20036;-79
2023/02/27 07:37:58;;;;;;;1.55;0.95;;;2.10;99.90;;;;;;4908469;29;20028;-80
2023/02/27 07:40:23;;;;;;;4.35;1.23;;;2.10;99.90;;;;;;4925112;29;20032;-81
2023/02/27 07:42:49;;;;;;;6.93;1.20;;;2.20;99.90;;;;;;4924959;29;20029;-81
2023/02/27 07:45:17;;;;;;;2.65;1.10;;;2.30;99.90;;;;;;4909001;29;20048;-80
2023/02/27 07:47:43;;;;;;;2.25;0.98;;;2.40;99.90;;;;;;4925291;29;20029;-81
2023/02/27 07:50:12;;;;;;;4.45;1.08;;;2.40;99.90;;;;;;4918092;29;20052;-80
2023/02/27 07:52:39;;;;;;;13.10;1.05;;;2.50;99.90;;;;;;4944264;29;20016;-81
2023/02/27 07:55:06;;;;;;;5.93;1.05;;;2.60;99.90;;;;;;4943993;29;20096;-81
2023/02/27 07:57:32;;;;;;;8.02;1.30;;;2.70;99.90;;;;;;4943910;29;20016;-81
2023/02/27 07:59:58;;;;;;;9.20;1.00;;;2.80;99.90;;;;;;4943652;29;20052;-79
2023/02/27 08:02:24;;;;;;;2.83;0.98;;;2.90;99.90;;;;;;4941423;29;20039;-80
2023/02/27 08:04:50;;;;;;;3.30;0.90;;;2.90;99.90;;;;;;4943242;29;20051;-80
2023/02/27 08:07:16;;;;;;;1.00;0.55;;;3.00;99.90;;;;;;4943041;29;20035;-80
2023/02/27 08:09:42;;;;;;;4.38;0.88;;;3.10;99.90;;;;;;4943862;29;20016;-80
2023/02/27 08:12:07;;;;;;;3.05;0.70;;;3.20;99.90;;;;;;4943986;29;20049;-82
2023/02/27 08:14:33;;;;;;;12.82;1.30;;;3.30;99.90;;;;;;4943094;29;20019;-79
2023/02/27 08:16:59;;;;;;;2.63;1.10;;;3.30;99.90;;;;;;4943370;29;20095;-81
2023/02/27 08:19:25;;;;;;;6.43;1.10;;;3.50;99.90;;;;;;4942488;29;20490;-81
2023/02/27 08:21:52;;;;;;;1.95;0.82;;;3.80;99.90;;;;;;4926482;29;20016;-80
2023/02/27 08:24:18;;;;;;;4.25;0.90;;;3.80;99.90;;;;;;4937281;29;20043;-81
2023/02/27 08:26:44;;;;;;;11.75;0.98;;;3.90;99.90;;;;;;4931786;29;20035;-81
2023/02/27 08:29:09;;;;;;;5.13;1.08;;;4.00;99.90;;;;;;4931000;29;20067;-81
2023/02/27 08:31:35;;;;;;;4.80;1.13;;;4.00;99.90;;;;;;4930026;29;20039;-81
2023/02/27 08:34:01;;;;;;;3.50;1.25;;;3.90;99.90;;;;;;4924564;29;20104;-81
2023/02/27 08:36:26;;;;;;;3.95;1.73;;;3.90;99.90;;;;;;4921920;29;20507;-82
2023/02/27 08:38:52;;;;;;;1.58;1.02;;;4.00;99.90;;;;;;4922329;29;20039;-81
2023/02/27 08:41:18;;;;;;;3.50;1.45;;;4.00;99.90;;;;;;4922519;29;20024;-81
2023/02/27 08:43:43;;;;;;;15.32;1.30;;;4.10;99.90;;;;;;4920165;29;20032;-81
2023/02/27 08:46:09;;;;;;;5.25;1.17;;;4.10;99.90;;;;;;4920384;29;20035;-81
2023/02/27 08:48:35;;;;;;;2.97;1.10;;;4.10;99.90;;;;;;4900669;29;20052;-81
2023/02/27 08:51:01;;;;;;;1.73;1.00;;;4.20;99.90;;;;;;4919508;29;20044;-81
2023/02/27 08:53:27;;;;;;;4.30;1.13;;;4.30;99.90;;;;;;4918323;29;20036;-82
2023/02/27 08:55:52;;;;;;;3.22;1.10;;;4.40;99.90;;;;;;4919370;29;20032;-81
2023/02/27 08:58:18;;;;;;;7.07;1.02;;;4.60;99.90;;;;;;4919529;29;20095;-81
2023/02/27 09:00:45;;;;;;;8.82;0.85;;;4.70;99.90;;;;;;4919517;29;20062;-83
2023/02/27 09:03:10;;;;;;;6.70;1.25;;;4.90;99.90;;;;;;4902171;29;20038;-83
2023/02/27 09:05:36;;;;;;;4.45;1.00;;;5.00;99.90;;;;;;4917361;29;20571;-82
2023/02/27 09:08:03;;;;;;;7.15;0.98;;;5.10;99.90;;;;;;4918946;29;20025;-81
2023/02/27 09:10:31;;;;;;;4.40;0.80;;;5.20;99.90;;;;;;4919579;29;20055;-81
2023/02/27 09:12:58;;;;;;;3.67;0.60;;;5.30;99.90;;;;;;4917622;29;20421;-82
2023/02/27 09:15:23;;;;;;;1.95;0.80;;;5.30;99.90;;;;;;4919128;29;20058;-82
2023/02/27 09:17:49;;;;;;;3.03;1.02;;;5.30;99.90;;;;;;4918753;29;20060;-82
2023/02/27 09:20:15;;;;;;;1.52;0.98;;;5.40;99.90;;;;;;4917350;29;20039;-81
2023/02/27 09:22:41;;;;;;;5.78;1.27;;;5.50;99.90;;;;;;4918237;29;20032;-82
2023/02/27 09:25:08;;;;;;;4.35;0.80;;;5.50;99.90;;;;;;4916410;29;20091;-82
2023/02/27 09:27:34;;;;;;;1.52;0.80;;;5.50;99.90;;;;;;4918342;29;20052;-82
2023/02/27 09:30:00;;;;;;;6.30;1.55;;;5.60;99.90;;;;;;4915479;29;20095;-81
2023/02/27 09:32:26;;;;;;;6.93;1.27;;;5.80;99.90;;;;;;4918653;29;20032;-82
2023/02/27 09:34:52;;;;;;;8.90;1.02;;;5.70;99.90;;;;;;4917791;29;20028;-82
2023/02/27 09:37:18;;;;;;;6.15;0.70;;;5.80;99.90;;;;;;4917123;29;20039;-83
2023/02/27 09:39:45;;;;;;;7.20;0.90;;;5.80;99.90;;;;;;4917074;29;20040;-81
2023/02/27 09:42:19;;;;;;;9.63;1.25;;;5.90;99.90;;;;;;4918602;29;20068;-82
2023/02/27 09:44:46;;;;;;;1.17;0.80;;;5.90;99.90;;;;;;4918517;29;20043;-82
2023/02/27 09:47:26;;;;;;;1.48;1.10;;;5.90;99.90;;;;;;4918076;29;20450;-82
2023/02/27 09:49:55;;;;;;;2.45;0.68;;;5.80;99.90;;;;;;4901228;29;20044;-82
2023/02/27 09:52:21;;;;;;;5.85;0.95;;;5.90;99.90;;;;;;4901387;29;20511;-83
2023/02/27 09:54:48;;;;;;;5.15;1.23;;;6.10;99.90;;;;;;4918816;29;20484;-82
2023/02/27 09:57:28;;;;;;;3.03;0.82;;;6.10;99.90;;;;;;4918476;29;20369;-82
2023/02/27 10:00:01;;;;;;;3.95;0.65;;;6.10;99.90;;;;;;4901585;29;20028;-80
2023/02/27 10:02:53;;;;;;;2.95;1.05;;;6.10;99.90;;;;;;4918653;29;20497;-81
2023/02/27 10:05:36;;;;;;;3.25;0.60;;;6.10;99.90;;;;;;4900921;29;20035;-82
2023/02/27 10:08:22;;;;;;;0.43;0.35;;;6.20;99.90;;;;;;4918398;29;20036;-81
2023/02/27 10:11:11;;;;;;;1.75;1.05;;;6.30;99.90;;;;;;4918716;29;20159;-81
2023/02/27 10:13:59;;;;;;;2.97;0.77;;;6.30;99.90;;;;;;4918797;29;20035;-82
2023/02/27 10:16:26;;;;;;;2.45;0.55;;;6.30;99.90;;;;;;4918534;29;20048;-83
2023/02/27 10:18:59;;;;;;;3.45;0.90;;;6.40;99.90;;;;;;4918822;29;20040;-81
2023/02/27 10:21:36;;;;;;;0.85;0.43;;;6.40;99.90;;;;;;4901530;29;20457;-83
2023/02/27 10:24:10;;;;;;;8.07;1.00;;;6.30;99.90;;;;;;4918527;29;20028;-80
2023/02/27 10:26:42;;;;;;;1.90;0.65;;;6.30;99.90;;;;;;4901552;29;20459;-81
2023/02/27 10:29:20;;;;;;;2.88;0.82;;;6.40;99.90;;;;;;4918149;29;20111;-82
2023/02/27 10:31:52;;;;;;;3.92;0.70;;;6.50;99.90;;;;;;4900628;29;20033;-81
2023/02/27 10:34:20;;;;;;;4.28;1.10;;;6.50;99.90;;;;;;4918107;29;20190;-80
2023/02/27 10:36:47;;;;;;;3.20;0.85;;;6.40;99.90;;;;;;4917976;29;20035;-82
2023/02/27 10:39:17;;;;;;;1.50;0.63;;;6.40;99.90;;;;;;4901522;29;20036;-81
2023/02/27 10:41:46;;;;;;;4.28;1.02;;;6.40;99.90;;;;;;4917946;29;20437;-81
2023/02/27 10:44:16;;;;;;;3.08;0.55;;;6.40;99.90;;;;;;4915150;29;20382;-81
2023/02/27 10:46:42;;;;;;;1.20;0.93;;;6.60;99.90;;;;;;4900796;29;20512;-81
2023/02/27 10:49:17;;;;;;;1.63;0.60;;;6.70;99.90;;;;;;4904175;29;20040;-80
2023/02/27 10:51:45;;;;;;;3.03;0.50;;;6.80;99.90;;;;;;4904635;29;20032;-81
2023/02/27 10:54:17;;;;;;;3.05;0.60;;;6.90;99.90;;;;;;4921653;29;20055;-82
2023/02/27 10:56:51;;;;;;;4.68;0.68;;;7.00;99.90;;;;;;4904553;29;20405;-81
2023/02/27 10:59:20;;;;;;;4.22;0.90;;;7.10;99.90;;;;;;4921834;29;20140;-81
2023/02/27 11:01:55;;;;;;;1.05;0.75;;;7.10;99.90;;;;;;4921168;29;20489;-83
2023/02/27 11:04:36;;;;;;;0.88;0.50;;;7.10;99.90;;;;;;4921419;29;20075;-82
2023/02/27 11:07:17;;;;;;;0.77;0.50;;;7.00;99.90;;;;;;4921467;29;20036;-81
2023/02/27 11:10:01;;;;;;;0.60;0.38;;;7.00;99.90;;;;;;4921046;29;20072;-81
2023/02/27 11:12:33;;;;;;;2.78;0.73;;;7.30;99.90;;;;;;4921164;29;20064;-81
2023/02/27 11:15:02;;;;;;;2.83;0.57;;;7.30;99.90;;;;;;4920946;29;20044;-81
2023/02/27 11:17:33;;;;;;;2.83;0.47;;;7.20;99.90;;;;;;4881462;29;20055;-81
2023/02/27 11:20:01;;;;;;;0.93;0.70;;;7.20;99.90;;;;;;4881564;29;20140;-81
2023/02/27 11:22:29;;;;;;;3.35;0.43;;;7.30;99.90;;;;;;4881404;29;20513;-81
2023/02/27 11:25:20;;;;;;;1.50;0.57;;;7.50;99.90;;;;;;4881453;29;20087;-82
2023/02/27 11:27:45;;;;;;;0.40;0.20;;;7.60;99.60;;;;;;4865062;29;20037;-82
2023/02/27 11:30:27;;;;;;;1.27;0.50;;;7.40;99.00;;;;;;4880540;29;20041;-82
2023/02/27 11:32:56;;;;;;;2.90;0.22;;;7.30;99.60;;;;;;4880357;29;20045;-81
2023/02/27 11:35:30;;;;;;;2.40;0.30;;;7.10;99.60;;;;;;4880841;29;20052;-81
2023/02/27 11:38:01;;;;;;;3.95;0.60;;;7.00;99.60;;;;;;4880499;29;20048;-81
2023/02/27 11:40:49;;;;;;;0.77;0.50;;;7.00;99.90;;;;;;4866107;29;20029;-82
2023/02/27 11:43:22;;;;;;;3.15;0.50;;;7.10;99.90;;;;;;4881373;29;20049;-81
2023/02/27 11:46:09;;;;;;;0.98;0.47;;;7.30;99.90;;;;;;4881223;29;20044;-81
2023/02/27 11:48:45;;;;;;;0.70;0.32;;;7.30;99.70;;;;;;4887640;29;20083;-82
2023/02/27 11:51:22;;;;;;;1.85;0.77;;;7.40;99.90;;;;;;4903526;29;20413;-81
2023/02/27 11:54:14;;;;;;;0.67;0.33;;;7.40;99.90;;;;;;4920518;29;20032;-81
2023/02/27 11:56:54;;;;;;;1.33;0.35;;;7.50;99.80;;;;;;4902632;29;20060;-81
2023/02/27 11:59:36;;;;;;;0.75;0.47;;;7.60;99.00;;;;;;4921110;29;20544;-81
2023/02/27 12:02:14;;;;;;;3.53;0.57;;;7.40;99.40;;;;;;4921373;29;20055;-81
2023/02/27 12:04:54;;;;;;;0.38;0.30;;;7.40;98.90;;;;;;4902589;29;20044;-82
2023/02/27 12:07:42;;;;;;;1.23;0.32;;;7.30;99.30;;;;;;4903479;29;20090;-82
2023/02/27 12:10:22;;;;;;;9.40;0.50;;;7.40;99.70;;;;;;4903587;29;20034;-81
2023/02/27 12:13:03;;;;;;;0.52;0.35;;;7.40;99.30;;;;;;4919260;29;20034;-82
2023/02/27 12:15:34;;;;;;;1.33;0.50;;;7.40;99.20;;;;;;4920826;29;20385;-84
2023/02/27 12:18:14;;;;;;;0.10;0.08;;;7.50;99.90;;;;;;4902908;29;20047;-82
2023/02/27 12:20:50;;;;;;;0.63;0.30;;;7.50;99.20;;;;;;4919946;29;20092;-82
2023/02/27 12:23:39;;;;;;;2.70;0.60;;;7.50;99.30;;;;;;4903257;29;20488;-82
2023/02/27 12:26:21;;;;;;;0.20;0.20;;;7.70;99.30;;;;;;4920009;29;20057;-84
2023/02/27 12:28:59;;;;;;;3.10;1.05;;;7.80;98.70;;;;;;4920281;29;20111;-83
2023/02/27 12:31:33;;;;;;;1.98;0.43;;;7.90;98.80;;;;;;4920157;29;20032;-82
2023/02/27 12:34:25;;;;;;;1.35;0.40;;;7.90;99.10;;;;;;4902643;29;20126;-82
2023/02/27 12:37:03;;;;;;;0.77;0.50;;;7.80;99.00;;;;;;4902638;29;20028;-83
2023/02/27 12:39:30;;;;;;;1.13;0.32;;;7.60;99.60;;;;;;4903381;29;20507;-83
2023/02/27 12:42:15;;;;;;;0.55;0.40;;;7.50;99.10;;;;;;4919960;29;20024;-82
2023/02/27 12:45:14;;;;;;;0.70;0.50;;;7.70;99.50;;;;;;4903301;29;20039;-82
2023/02/27 12:47:48;;;;;;;0.85;0.63;;;7.80;99.20;;;;;;4878012;29;20048;-82
2023/02/27 12:50:24;;;;;;;0.95;0.60;;;7.90;99.00;;;;;;4919056;29;20067;-82
2023/02/27 12:53:25;;;;;;;4.93;0.45;;;8.00;98.90;;;;;;4900024;29;20047;-83
2023/02/27 12:56:00;;;;;;;5.03;0.70;;;8.00;99.60;;;;;;4919556;29;20524;-83
2023/02/27 12:59:13;;;;;;;1.67;0.30;;;8.10;98.80;;;;;;4917158;29;20068;-81
2023/02/27 13:01:47;;;;;;;2.40;0.40;;;8.20;99.00;;;;;;4845628;29;20037;-82
2023/02/27 13:04:37;;;;;;;3.13;0.63;;;8.30;99.40;;;;;;4860602;29;20517;-81
2023/02/27 13:07:23;;;;;;;0.75;0.55;;;8.30;99.00;;;;;;4884237;29;20072;-81
2023/02/27 13:10:07;;;;;;;0.77;0.43;;;8.30;98.60;;;;;;4902066;29;20036;-81
2023/02/27 13:13:02;;;;;;;0.47;0.40;;;8.30;98.90;;;;;;4901597;29;20047;-81
2023/02/27 13:15:37;;;;;;;1.20;0.55;;;8.20;98.90;;;;;;4918784;29;20040;-82
2023/02/27 13:18:21;;;;;;;1.13;0.60;;;8.20;99.00;;;;;;4901138;29;20036;-81
2023/02/27 13:20:54;;;;;;;4.35;0.32;;;8.30;99.10;;;;;;4902195;29;20036;-81
2023/02/27 13:23:30;;;;;;;2.65;0.50;;;8.50;99.30;;;;;;4919195;29;20392;-82
2023/02/27 13:25:59;;;;;;;2.95;0.60;;;8.50;99.20;;;;;;4902058;29;20033;-82
2023/02/27 13:28:28;;;;;;;6.63;1.05;;;8.70;99.60;;;;;;4901618;29;20031;-81
2023/02/27 13:31:07;;;;;;;5.88;0.80;;;9.00;99.70;;;;;;4918907;29;20039;-81
2023/02/27 13:34:04;;;;;;;4.65;0.52;;;9.00;98.40;;;;;;4918561;29;20519;-81